Hansonville, Virginia
Current Conditions -  °F | °C
As of 5:15 AM on Wednesday 26 Nov 2014 (Local Time) from KVJI Reporting Station
Moderate Rain Moderate Rain  
Wind Chill: 39°   Ceiling: 2000
Heat Index: 42°   Visibility: 10mi
Dew Point: 38°   Wind: 5mph
Humidity: 87%   Direction: 70°ENE
Pressure: 29.93"   Gusts: NA
Location:  36.85°N, 82.1249°W
Report Text: KVJI 261015Z AUTO 07004KT 10SM RA OVC020 06/04 A2993 RMK AO2 P0003 T00550035
Loading
Personal Weather Stations






























Interactive Weather Map New forecast layout! Learn more

10-Day Weather Forecast

Advertisements
Track Severe Weather on mobile